createdAt,value
2022-09-06T00:01:27.568Z,62.86
2022-09-06T00:04:51.684Z,63.07
2022-09-06T00:08:15.624Z,62.71
2022-09-06T00:11:37.212Z,62.48
2022-09-06T00:14:58.880Z,61.77
2022-09-06T00:18:20.667Z,62.46
2022-09-06T00:21:42.245Z,62.79
2022-09-06T00:25:06.403Z,62.92
2022-09-06T00:28:30.243Z,63.00
2022-09-06T00:31:54.256Z,63.49
2022-09-06T00:35:16.426Z,63.76
2022-09-06T00:38:39.026Z,63.70
2022-09-06T00:42:00.892Z,64.85
2022-09-06T00:45:26.947Z,65.44
2022-09-06T00:48:52.575Z,65.48
2022-09-06T00:52:16.189Z,65.42
2022-09-06T00:55:38.229Z,64.95
2022-09-06T00:59:03.393Z,65.37
2022-09-06T01:02:25.088Z,65.17
2022-09-06T01:06:11.107Z,64.80
2022-09-06T01:09:32.655Z,64.77
2022-09-06T01:13:18.982Z,64.94
2022-09-06T01:16:56.499Z,65.11
2022-09-06T01:20:36.326Z,65.46
2022-09-06T01:24:35.154Z,65.74
2022-09-06T01:28:22.590Z,65.79
2022-09-06T01:31:54.679Z,65.46
2022-09-06T01:35:33.968Z,66.04
2022-09-06T01:38:57.848Z,66.32
2022-09-06T01:42:23.918Z,66.33
2022-09-06T01:46:23.077Z,65.99
2022-09-06T01:49:54.277Z,66.06
2022-09-06T01:53:57.286Z,65.89
2022-09-06T01:57:21.669Z,65.90
2022-09-06T02:01:29.567Z,66.69
2022-09-06T02:04:57.195Z,66.61
2022-09-06T02:08:28.142Z,65.48
2022-09-06T02:11:59.621Z,65.79
2022-09-06T02:15:26.504Z,67.28
2022-09-06T02:18:54.074Z,66.43
2022-09-06T02:22:18.788Z,66.14
2022-09-06T02:25:47.346Z,67.09
2022-09-06T02:29:11.721Z,67.61
2022-09-06T02:32:40.283Z,67.47
2022-09-06T02:36:08.476Z,65.74
2022-09-06T02:39:30.007Z,64.74
2022-09-06T02:42:56.619Z,63.80
2022-09-06T02:46:21.064Z,63.87
2022-09-06T02:49:42.674Z,63.60
2022-09-06T02:53:12.101Z,61.95
2022-09-06T02:56:36.729Z,62.08
2022-09-06T02:59:58.384Z,62.49
2022-09-06T03:03:23.444Z,62.52
2022-09-06T03:06:45.012Z,63.80
2022-09-06T03:10:06.901Z,64.11
2022-09-06T03:13:30.707Z,64.40
2022-09-06T03:16:52.511Z,64.09
2022-09-06T03:20:14.107Z,63.93
2022-09-06T03:23:35.763Z,63.59
2022-09-06T03:26:59.896Z,63.87
2022-09-06T03:30:21.632Z,64.12
2022-09-06T03:33:43.194Z,64.30
2022-09-06T03:37:05.142Z,63.95
2022-09-06T03:40:31.728Z,64.37
2022-09-06T03:43:53.652Z,63.57
2022-09-06T03:47:19.259Z,63.22
2022-09-06T03:50:48.966Z,63.08
2022-09-06T03:54:10.481Z,62.99
2022-09-06T03:57:32.278Z,64.15
2022-09-06T04:01:08.093Z,63.73
2022-09-06T04:04:32.396Z,64.05
2022-09-06T04:07:56.292Z,64.51
2022-09-06T04:11:20.108Z,64.68
2022-09-06T04:14:41.650Z,64.89
2022-09-06T04:18:08.571Z,65.01
2022-09-06T04:21:33.242Z,64.00
2022-09-06T04:24:54.914Z,63.74
2022-09-06T04:28:18.431Z,64.35
2022-09-06T04:31:40.241Z,64.07
2022-09-06T04:35:01.813Z,63.84
2022-09-06T04:38:24.412Z,64.39
2022-09-06T04:41:46.002Z,63.83
2022-09-06T04:45:08.306Z,63.41
2022-09-06T04:48:30.021Z,63.45
2022-09-06T04:51:56.364Z,63.40
2022-09-06T04:55:20.311Z,63.67
2022-09-06T04:58:45.831Z,63.61
2022-09-06T05:02:09.748Z,63.03
2022-09-06T05:05:33.734Z,62.94
2022-09-06T05:08:55.303Z,62.07
2022-09-06T05:12:16.971Z,61.56
2022-09-06T05:15:38.634Z,61.86
2022-09-06T05:19:00.421Z,61.49
2022-09-06T05:22:24.243Z,67.59
2022-09-06T05:25:45.999Z,61.93
2022-09-06T05:29:07.704Z,58.76
2022-09-06T05:32:31.776Z,59.67
2022-09-06T05:35:58.852Z,54.77
2022-09-06T05:39:21.920Z,55.73
2022-09-06T05:42:45.829Z,57.77
2022-09-06T05:46:11.330Z,59.98
2022-09-06T05:49:34.967Z,55.42
2022-09-06T05:52:56.530Z,54.98
2022-09-06T05:56:19.064Z,54.82
2022-09-06T05:59:43.108Z,54.25
2022-09-06T06:03:06.917Z,57.24
2022-09-06T06:06:31.552Z,53.04
2022-09-06T06:09:53.081Z,54.23
2022-09-06T06:13:14.869Z,54.38
2022-09-06T06:16:37.887Z,53.70
2022-09-06T06:19:59.517Z,51.27
2022-09-06T06:23:21.045Z,51.99
2022-09-06T06:26:42.718Z,54.64
2022-09-06T06:30:07.535Z,53.08
2022-09-06T06:33:29.189Z,46.40
2022-09-06T06:36:50.715Z,49.64
2022-09-06T06:40:12.440Z,46.06
2022-09-06T06:43:38.169Z,44.76
2022-09-06T06:47:02.242Z,44.67
2022-09-06T06:50:26.265Z,45.42
2022-09-06T06:53:49.077Z,46.97
2022-09-06T06:57:12.667Z,44.77
2022-09-06T07:00:34.395Z,45.66
2022-09-06T07:04:03.369Z,43.88
2022-09-06T07:07:30.882Z,46.89
2022-09-06T07:10:54.947Z,45.95
2022-09-06T07:14:19.225Z,43.17
2022-09-06T07:17:44.157Z,43.15
2022-09-06T07:24:55.897Z,43.06
2022-09-06T07:28:19.933Z,41.30
2022-09-06T07:35:27.762Z,43.70
2022-09-06T07:38:54.352Z,43.35
2022-09-06T07:42:16.321Z,41.99
2022-09-06T07:45:40.172Z,43.91
2022-09-06T07:49:04.846Z,44.55
2022-09-06T07:56:11.273Z,42.25
2022-09-06T07:59:35.106Z,42.08
2022-09-06T08:02:56.838Z,41.73
2022-09-06T08:06:18.404Z,42.23
2022-09-06T08:09:39.974Z,41.55
2022-09-06T08:13:01.542Z,41.68
2022-09-06T08:16:25.565Z,43.20
2022-09-06T08:19:47.175Z,42.27
2022-09-06T08:23:14.198Z,43.63
2022-09-06T08:26:40.581Z,45.43
2022-09-06T08:30:04.312Z,44.12
2022-09-06T08:33:27.308Z,44.10
2022-09-06T08:36:48.987Z,44.77
2022-09-06T08:40:11.261Z,44.87
2022-09-06T08:43:37.772Z,45.29
2022-09-06T08:47:09.393Z,44.57
2022-09-06T08:50:32.227Z,44.03
2022-09-06T08:54:00.260Z,44.31
2022-09-06T08:58:00.432Z,44.93
2022-09-06T09:01:30.766Z,45.08
2022-09-06T09:05:00.430Z,45.53
2022-09-06T09:08:28.047Z,44.87
2022-09-06T09:11:50.908Z,43.80
2022-09-06T09:15:15.712Z,42.69
2022-09-06T09:18:41.955Z,43.28
2022-09-06T09:22:06.168Z,42.24
2022-09-06T09:25:31.913Z,44.25
2022-09-06T09:29:14.799Z,44.45
2022-09-06T09:32:46.429Z,44.07
2022-09-06T09:36:12.874Z,43.11
2022-09-06T09:39:39.381Z,44.10
2022-09-06T09:43:22.303Z,43.48
2022-09-06T09:46:47.250Z,42.11
2022-09-06T09:50:27.836Z,42.36
2022-09-06T09:53:54.878Z,40.58
2022-09-06T09:57:23.953Z,41.31
2022-09-06T10:00:46.741Z,41.59
2022-09-06T10:08:12.190Z,41.60
2022-09-06T10:11:47.868Z,41.72
2022-09-06T10:15:32.878Z,40.95
2022-09-06T10:18:59.180Z,42.84
2022-09-06T10:22:28.504Z,40.77
2022-09-06T10:25:58.707Z,40.47
2022-09-06T10:29:48.054Z,41.61
2022-09-06T10:33:24.579Z,40.08
2022-09-06T10:37:01.143Z,38.52
2022-09-06T10:40:25.576Z,39.30
2022-09-06T10:44:10.229Z,39.05
2022-09-06T10:47:45.455Z,38.73
2022-09-06T10:51:58.298Z,40.33
2022-09-06T10:55:20.622Z,40.21
2022-09-06T11:06:45.944Z,38.80
2022-09-06T11:10:10.339Z,37.91
2022-09-06T11:13:35.052Z,39.36
2022-09-06T11:17:05.040Z,40.06
2022-09-06T11:20:41.316Z,39.72
2022-09-06T11:24:20.268Z,39.81
2022-09-06T11:27:47.743Z,40.15
2022-09-06T11:35:07.334Z,40.40
2022-09-06T11:38:28.902Z,40.94
2022-09-06T11:41:52.759Z,42.03
2022-09-06T11:45:22.230Z,42.50
2022-09-06T11:48:59.622Z,43.48
2022-09-06T11:52:59.814Z,41.31
2022-09-06T11:56:37.329Z,41.29
2022-09-06T12:00:06.992Z,41.51
2022-09-06T12:07:24.928Z,39.70
2022-09-06T12:10:56.927Z,39.55
2022-09-06T12:14:36.363Z,36.69
2022-09-06T12:17:59.489Z,37.08
2022-09-06T12:21:38.313Z,36.64
2022-09-06T12:25:00.974Z,38.56
2022-09-06T12:28:30.458Z,37.73
2022-09-06T12:31:57.332Z,37.76
2022-09-06T12:39:12.176Z,38.77
2022-09-06T12:42:38.118Z,38.46
2022-09-06T12:46:03.463Z,36.26
2022-09-06T12:49:29.911Z,35.56
2022-09-06T12:53:00.965Z,36.43
2022-09-06T12:56:34.962Z,36.72
2022-09-06T12:59:57.757Z,37.08
2022-09-06T13:03:28.598Z,37.13
2022-09-06T13:06:50.588Z,36.99
2022-09-06T13:10:15.822Z,35.92
2022-09-06T13:13:46.760Z,36.23
2022-09-06T13:17:08.720Z,36.28
2022-09-06T13:20:33.040Z,35.21
2022-09-06T13:23:54.760Z,36.75
2022-09-06T13:27:38.481Z,35.98
2022-09-06T13:31:05.468Z,36.43
2022-09-06T13:34:31.238Z,35.83
2022-09-06T13:38:24.159Z,35.75
2022-09-06T13:41:56.678Z,37.11
2022-09-06T13:45:29.413Z,37.74
2022-09-06T13:48:54.205Z,38.99
2022-09-06T13:52:15.730Z,38.83
2022-09-06T13:55:37.667Z,38.97
2022-09-06T13:59:01.499Z,38.75
2022-09-06T14:02:25.104Z,38.96
2022-09-06T14:05:46.972Z,39.72
2022-09-06T14:09:11.088Z,40.15
2022-09-06T14:12:34.301Z,40.65
2022-09-06T14:15:59.612Z,41.25
2022-09-06T14:19:21.371Z,40.95
2022-09-06T14:22:42.992Z,41.54
2022-09-06T14:26:06.812Z,41.79
2022-09-06T14:29:31.289Z,41.95
2022-09-06T14:32:53.035Z,41.85
2022-09-06T14:36:16.940Z,42.27
2022-09-06T14:39:38.524Z,42.22
2022-09-06T14:43:00.159Z,42.42
2022-09-06T14:46:23.434Z,42.19
2022-09-06T14:49:47.731Z,42.39
2022-09-06T14:53:30.140Z,42.22
2022-09-06T14:56:50.940Z,42.86
2022-09-06T15:00:13.228Z,43.10
2022-09-06T15:03:37.907Z,43.38
2022-09-06T15:06:59.971Z,43.72
2022-09-06T15:10:24.026Z,44.20
2022-09-06T15:13:45.574Z,44.40
2022-09-06T15:17:08.970Z,44.27
2022-09-06T15:20:30.511Z,44.52
2022-09-06T15:23:52.855Z,44.68
2022-09-06T15:27:14.512Z,44.72
2022-09-06T15:30:39.495Z,45.12
2022-09-06T15:34:02.838Z,46.08
2022-09-06T15:37:27.094Z,46.45
2022-09-06T15:40:52.028Z,50.28
2022-09-06T15:44:16.751Z,54.06
2022-09-06T15:47:40.164Z,59.41
2022-09-06T15:51:02.963Z,63.29
2022-09-06T15:54:43.647Z,61.62
2022-09-06T15:58:05.268Z,61.03
2022-09-06T16:01:27.392Z,61.47
2022-09-06T16:04:49.017Z,62.74
2022-09-06T16:08:10.551Z,63.92
2022-09-06T16:11:33.589Z,63.04
2022-09-06T16:15:00.458Z,64.57
2022-09-06T16:18:22.146Z,65.85
2022-09-06T16:21:44.136Z,65.11
2022-09-06T16:25:07.157Z,63.64
2022-09-06T16:28:31.849Z,60.70
2022-09-06T16:31:59.589Z,60.39
2022-09-06T16:35:21.282Z,58.73
2022-09-06T16:38:43.693Z,58.70
2022-09-06T16:42:06.209Z,58.05
2022-09-06T16:45:27.782Z,58.13
2022-09-06T16:49:04.456Z,57.96
2022-09-06T16:52:28.824Z,58.26
2022-09-06T16:55:51.167Z,58.81
2022-09-06T16:59:15.286Z,59.24
2022-09-06T17:02:37.072Z,59.70
2022-09-06T17:05:58.684Z,59.70
2022-09-06T17:09:20.345Z,60.93
2022-09-06T17:12:44.345Z,61.59
2022-09-06T17:16:24.958Z,61.45
2022-09-06T17:19:49.026Z,61.34
2022-09-06T17:23:13.564Z,61.16
2022-09-06T17:26:37.968Z,61.74
2022-09-06T17:30:05.008Z,62.14
2022-09-06T17:33:30.853Z,62.54
2022-09-06T17:37:00.468Z,62.41
2022-09-06T17:40:22.029Z,62.11
2022-09-06T17:43:45.859Z,61.66
2022-09-06T17:47:12.961Z,61.95
2022-09-06T17:50:35.304Z,63.73
2022-09-06T17:53:57.419Z,64.11
2022-09-06T17:57:23.699Z,64.46
2022-09-06T18:00:50.486Z,64.96
2022-09-06T18:04:13.333Z,66.52
2022-09-06T18:07:34.907Z,67.81
2022-09-06T18:10:59.065Z,68.84
2022-09-06T18:14:23.414Z,68.75
2022-09-06T18:17:45.345Z,66.82
2022-09-06T18:21:07.184Z,66.53
2022-09-06T18:24:29.086Z,66.09
2022-09-06T18:27:50.979Z,66.42
2022-09-06T18:31:18.373Z,66.27
2022-09-06T18:34:40.163Z,66.58
2022-09-06T18:38:04.357Z,65.83
2022-09-06T18:41:44.684Z,65.80
2022-09-06T18:45:06.755Z,67.29
2022-09-06T18:48:29.108Z,67.68
2022-09-06T18:51:50.777Z,69.50
2022-09-06T18:55:15.075Z,70.47
2022-09-06T18:58:40.732Z,70.49
2022-09-06T19:02:03.515Z,71.38
2022-09-06T19:05:25.137Z,71.67
2022-09-06T19:08:48.049Z,72.88
2022-09-06T19:12:11.914Z,74.01
2022-09-06T19:15:43.184Z,73.31
2022-09-06T19:19:06.899Z,72.20
2022-09-06T19:22:28.567Z,71.26
2022-09-06T19:26:20.012Z,71.45
2022-09-06T19:29:41.903Z,71.17
2022-09-06T19:33:05.760Z,71.27
2022-09-06T19:36:28.883Z,70.61
2022-09-06T19:39:50.561Z,70.65
2022-09-06T19:43:12.306Z,70.98
2022-09-06T19:46:34.969Z,71.65
2022-09-06T19:49:57.001Z,71.57
2022-09-06T19:53:20.839Z,72.42
2022-09-06T19:56:44.230Z,72.87
2022-09-06T20:00:06.548Z,73.13
2022-09-06T20:03:31.469Z,73.36
2022-09-06T20:06:53.378Z,74.04
2022-09-06T20:10:15.292Z,73.22
2022-09-06T20:13:38.193Z,73.03
2022-09-06T20:17:29.271Z,72.91
2022-09-06T20:20:44.481Z,72.49
2022-09-06T20:24:06.338Z,72.86
2022-09-06T20:27:28.040Z,73.16
2022-09-06T20:30:49.685Z,72.90
2022-09-06T20:34:14.480Z,72.37
2022-09-06T20:37:38.713Z,72.08
2022-09-06T20:41:09.408Z,72.00
2022-09-06T20:44:31.112Z,71.70
2022-09-06T20:47:52.850Z,71.70
2022-09-06T20:51:23.035Z,71.52
2022-09-06T20:54:50.045Z,71.67
2022-09-06T20:58:11.701Z,71.40
2022-09-06T21:01:41.090Z,71.83
2022-09-06T21:05:04.560Z,72.11
2022-09-06T21:08:26.427Z,71.83
2022-09-06T21:11:52.624Z,71.70
2022-09-06T21:15:25.790Z,72.20
2022-09-06T21:18:55.299Z,73.27
2022-09-06T21:22:18.132Z,73.25
2022-09-06T21:25:40.301Z,73.08
2022-09-06T21:29:05.035Z,72.45
2022-09-06T21:32:32.579Z,72.48
2022-09-06T21:36:00.366Z,72.69
2022-09-06T21:39:21.903Z,72.42
2022-09-06T21:42:43.554Z,72.32
2022-09-06T21:46:18.892Z,72.42
2022-09-06T21:49:44.035Z,72.26
2022-09-06T21:53:08.317Z,72.09
2022-09-06T21:56:31.132Z,71.96
2022-09-06T21:59:55.161Z,71.91
2022-09-06T22:03:16.756Z,71.88
2022-09-06T22:06:40.862Z,71.93
2022-09-06T22:10:05.185Z,71.78
2022-09-06T22:13:28.083Z,71.91
2022-09-06T22:16:51.799Z,71.88
2022-09-06T22:20:15.671Z,71.76
2022-09-06T22:23:41.595Z,71.89
2022-09-06T22:27:03.461Z,73.10
2022-09-06T22:30:31.920Z,73.49
2022-09-06T22:33:54.721Z,73.39
2022-09-06T22:37:16.683Z,73.27
2022-09-06T22:40:38.330Z,73.44
2022-09-06T22:44:01.413Z,73.95
2022-09-06T22:47:23.278Z,74.11
2022-09-06T22:50:45.027Z,74.00
2022-09-06T22:54:06.874Z,73.90
2022-09-06T22:57:33.165Z,74.36
2022-09-06T23:00:55.409Z,74.04
2022-09-06T23:04:17.132Z,73.66
2022-09-06T23:07:43.425Z,73.52
2022-09-06T23:11:07.716Z,73.51
2022-09-06T23:14:29.310Z,74.12
2022-09-06T23:17:51.521Z,73.97
2022-09-06T23:21:17.131Z,73.77
2022-09-06T23:24:39.577Z,73.77
2022-09-06T23:28:03.368Z,73.66
2022-09-06T23:31:28.209Z,73.59
2022-09-06T23:34:49.796Z,73.72
2022-09-06T23:38:11.309Z,73.94
2022-09-06T23:41:35.146Z,73.94
2022-09-06T23:44:59.104Z,74.04
2022-09-06T23:48:21.156Z,74.48
2022-09-06T23:51:47.536Z,74.39
2022-09-06T23:55:09.817Z,74.63
2022-09-06T23:58:32.131Z,75.72
